Impacts TAF Board
For situational awareness. Not to be used for flight planning purposes.
IDs:

KPIT - Pittsburgh Intl, PA, US

Issued at 2320 UTC 31 Jan 2023
Updated at 0215 UTC 01 Feb 2023
Potential Impact None Slight Moderate High
Time<<02/03Z 02/04Z 02/05Z 02/06Z 02/07Z 02/08Z 02/09Z 02/10Z 02/11Z 02/12Z 02/13Z 02/14Z 02/15Z
Type PRVL PRVL PRVL
VIS >6 >6 >6
CIG -- -- --
Cover SKC SKC SKC
FltCat VFR VFR VFR
WX -- -- --
WDir 290 290 290
WSpd 4 4 4
WGst -- -- --
WSHgt -- -- --
WSDir -- -- --
WSSpd -- -- --

NOTE: LAMP data beyond the time of the TAF data is denoted as LAMP in Type and colored magenta.

Raw TAF
KPIT 312320Z 0100/0206 35005KT P6SM BKN250
  FM010300 31004KT P6SM OVC025
  FM011000 32005KT P6SM SCT025
  FM011600 29004KT P6SM SKC


METAR Board
Radar Display
Forecast Discussion

For situational awareness. Not to be used for flight planning purposes.